Time;durP1;ratioP1;P1;durP2;ratioP2;P2;SDS_P1;SDS_P2;PMS_P1;PMS_P2;Temp;Humidity;BMP_temperature;BMP_pressure;BME280_temperature;BME280_humidity;BME280_pressure;Samples;Min_cycle;Max_cycle;Signal;HPM_P1;HPM_P2
2022/09/13 00:01:36;;;;;;;23.88;17.90;;;;;;;17.39;85.57;100898.56;5073937;28;20032;-61
2022/09/13 00:04:03;;;;;;;24.25;18.60;;;;;;;17.37;85.86;100898.91;5074263;28;20398;-60
2022/09/13 00:06:28;;;;;;;23.15;17.35;;;;;;;17.37;85.95;100889.72;5074683;28;20040;-62
2022/09/13 00:08:53;;;;;;;23.83;18.23;;;;;;;17.35;86.04;100884.47;5073346;28;20368;-61
2022/09/13 00:11:24;;;;;;;24.65;18.50;;;;;;;17.35;86.00;100892.84;5073272;28;20336;-61
2022/09/13 00:13:50;;;;;;;24.42;17.75;;;;;;;17.34;85.35;100891.22;5073459;28;20063;-61
2022/09/13 00:16:17;;;;;;;23.85;18.30;;;;;;;17.33;85.87;100892.41;5073657;28;20052;-60
2022/09/13 00:18:42;;;;;;;24.60;17.65;;;;;;;17.33;85.50;100888.78;5072577;28;20052;-62
2022/09/13 00:21:12;;;;;;;24.13;17.45;;;;;;;17.32;85.42;100885.19;5054862;28;20028;-61
2022/09/13 00:23:38;;;;;;;23.13;17.83;;;;;;;17.32;85.10;100887.97;5073054;28;20017;-61
2022/09/13 00:26:05;;;;;;;22.65;16.95;;;;;;;17.33;85.00;100880.41;5072824;28;20031;-60
2022/09/13 00:28:30;;;;;;;23.27;17.33;;;;;;;17.31;84.83;100869.56;5073170;28;20074;-60
2022/09/13 00:31:04;;;;;;;22.63;17.92;;;;;;;17.34;83.98;100880.03;5073747;28;20032;-59
2022/09/13 00:33:30;;;;;;;23.20;16.92;;;;;;;17.30;83.92;100874.34;5072800;28;20116;-59
2022/09/13 00:35:55;;;;;;;23.67;17.42;;;;;;;17.30;83.80;100865.94;5073091;28;20101;-59
2022/09/13 00:38:21;;;;;;;23.50;16.52;;;;;;;17.27;83.94;100866.66;5073412;28;20141;-60
2022/09/13 00:40:46;;;;;;;23.02;17.00;;;;;;;17.28;83.44;100854.31;5073723;28;20025;-60
2022/09/13 00:43:20;;;;;;;21.90;16.20;;;;;;;17.30;83.41;100851.97;5073152;28;20122;-60
2022/09/13 00:45:47;;;;;;;23.42;16.70;;;;;;;17.27;82.86;100852.69;5073086;28;20483;-59
2022/09/13 00:48:20;;;;;;;21.83;15.82;;;;;;;17.25;83.01;100857.81;5073151;28;20099;-59
2022/09/13 00:50:54;;;;;;;22.17;15.90;;;;;;;17.27;83.15;100851.84;5072876;28;20060;-59
2022/09/13 00:53:25;;;;;;;24.10;16.50;;;;;;;17.24;83.17;100853.38;5073432;28;20546;-60
2022/09/13 00:55:59;;;;;;;23.52;16.58;;;;;;;17.20;82.89;100846.84;5073678;28;20487;-60
2022/09/13 00:58:30;;;;;;;22.92;16.98;;;;;;;17.22;83.25;100838.13;5054919;28;20483;-60
2022/09/13 01:00:58;;;;;;;22.85;16.60;;;;;;;17.15;83.15;100830.34;5072863;28;20052;-59
2022/09/13 01:03:27;;;;;;;23.02;17.30;;;;;;;17.20;82.83;100844.06;5072792;28;20032;-59
2022/09/13 01:06:00;;;;;;;22.40;16.48;;;;;;;17.13;82.88;100832.66;5073021;28;20028;-60
2022/09/13 01:08:30;;;;;;;23.30;17.33;;;;;;;17.16;82.65;100845.94;5072692;28;20036;-60
2022/09/13 01:10:58;;;;;;;23.15;16.13;;;;;;;17.14;82.80;100843.47;5072242;28;20060;-60
2022/09/13 01:13:27;;;;;;;22.17;16.38;;;;;;;17.13;82.70;100843.84;5071854;28;20029;-59
2022/09/13 01:15:52;;;;;;;22.52;16.08;;;;;;;17.11;83.05;100838.63;5072172;28;20051;-59
2022/09/13 01:18:17;;;;;;;23.08;16.15;;;;;;;17.11;83.00;100844.19;5073133;28;20119;-60
2022/09/13 01:21:14;;;;;;;22.23;16.35;;;;;;;17.11;82.66;100841.41;5073100;28;20534;-60
2022/09/13 01:24:01;;;;;;;23.42;16.33;;;;;;;17.11;82.51;100840.56;5072360;28;20187;-59
2022/09/13 01:26:58;;;;;;;23.25;16.65;;;;;;;17.09;82.78;100843.72;5055630;28;20349;-60
2022/09/13 01:29:40;;;;;;;23.13;16.67;;;;;;;17.02;82.68;100837.09;5072327;28;20150;-59
2022/09/13 01:32:24;;;;;;;21.88;16.33;;;;;;;17.08;82.62;100844.09;5072009;28;20109;-61
2022/09/13 01:35:11;;;;;;;23.52;16.65;;;;;;;17.07;82.74;100842.47;5072418;28;20044;-60
2022/09/13 01:38:00;;;;;;;22.70;16.05;;;;;;;17.07;82.32;100837.66;5071993;28;20047;-61
2022/09/13 01:41:00;;;;;;;23.20;16.48;;;;;;;17.09;82.37;100842.94;5053790;28;20036;-60
2022/09/13 01:43:36;;;;;;;23.60;15.98;;;;;;;17.07;82.47;100836.88;5071733;28;20056;-58
2022/09/13 01:46:06;;;;;;;23.10;15.55;;;;;;;17.09;82.52;100832.56;5072535;28;20024;-60
2022/09/13 01:49:06;;;;;;;22.13;15.95;;;;;;;17.10;82.14;100833.34;5071727;28;20090;-58
2022/09/13 01:52:00;;;;;;;23.45;16.10;;;;;;;17.10;82.21;100830.56;5066476;28;20124;-60
2022/09/13 01:54:37;;;;;;;23.73;16.08;;;;;;;17.10;82.59;100836.97;5068378;28;20036;-59
2022/09/13 01:57:15;;;;;;;23.25;16.50;;;;;;;17.12;82.32;100833.81;5071306;28;20035;-60
2022/09/13 01:59:54;;;;;;;23.38;17.45;;;;;;;17.04;82.43;100824.41;5053546;28;20082;-60
2022/09/13 02:02:19;;;;;;;22.92;16.73;;;;;;;17.11;82.64;100835.81;5071488;28;20039;-61
2022/09/13 02:04:53;;;;;;;21.70;15.90;;;;;;;17.12;82.38;100828.22;5071260;28;20024;-58
2022/09/13 02:07:34;;;;;;;22.77;16.02;;;;;;;17.05;82.49;100814.84;5071496;28;20056;-60
2022/09/13 02:10:15;;;;;;;22.83;15.85;;;;;;;17.11;82.67;100829.41;5072078;28;20411;-60
2022/09/13 02:12:42;;;;;;;23.30;17.00;;;;;;;17.05;83.49;100826.03;5071622;28;20097;-61
2022/09/13 02:15:14;;;;;;;24.33;16.00;;;;;;;17.01;83.49;100813.94;5071073;28;20179;-60
2022/09/13 02:17:46;;;;;;;24.17;16.30;;;;;;;17.06;82.94;100824.84;5070630;28;20027;-59
2022/09/13 02:20:24;;;;;;;23.75;17.15;;;;;;;16.98;83.64;100809.03;5072107;28;20380;-60
2022/09/13 02:22:55;;;;;;;22.42;16.38;;;;;;;17.05;82.78;100822.44;5071799;28;20020;-60
2022/09/13 02:25:21;;;;;;;25.77;16.73;;;;;;;17.05;83.44;100833.59;5071611;28;20103;-60
2022/09/13 02:27:51;;;;;;;23.73;16.85;;;;;;;17.00;83.80;100823.47;5070865;28;20426;-60
2022/09/13 02:30:18;;;;;;;23.27;16.20;;;;;;;17.05;83.58;100831.63;5071138;28;20394;-59
2022/09/13 02:32:53;;;;;;;22.75;16.35;;;;;;;17.06;83.62;100835.25;5070913;28;20457;-60
2022/09/13 02:35:29;;;;;;;22.45;16.02;;;;;;;17.04;83.56;100823.59;5071459;28;20029;-59
2022/09/13 02:38:01;;;;;;;23.52;16.48;;;;;;;17.05;83.91;100828.81;5071497;28;20024;-61
2022/09/13 02:40:40;;;;;;;23.25;15.80;;;;;;;17.06;84.07;100827.66;5071292;28;20090;-60
2022/09/13 02:43:14;;;;;;;22.15;15.65;;;;;;;16.98;83.92;100821.03;5071442;28;20434;-60
2022/09/13 02:45:48;;;;;;;24.67;16.35;;;;;;;17.02;84.11;100825.91;5071611;28;20074;-61
2022/09/13 02:48:24;;;;;;;23.70;16.80;;;;;;;17.03;84.03;100833.13;5071517;28;20514;-60
2022/09/13 02:51:02;;;;;;;21.63;16.15;;;;;;;16.95;84.20;100824.53;5070863;28;20036;-60
2022/09/13 02:53:51;;;;;;;23.13;16.55;;;;;;;16.96;83.82;100836.50;5071594;28;20107;-61
2022/09/13 02:56:31;;;;;;;25.17;16.63;;;;;;;16.99;84.16;100833.03;5070654;28;20117;-60
2022/09/13 02:59:01;;;;;;;22.48;16.77;;;;;;;16.96;83.66;100839.31;5070992;28;20033;-59
2022/09/13 03:01:26;;;;;;;22.23;16.08;;;;;;;16.97;83.86;100838.16;5070899;28;20044;-61
2022/09/13 03:03:55;;;;;;;23.17;15.90;;;;;;;16.95;83.97;100843.28;5071402;28;20044;-59
2022/09/13 03:06:27;;;;;;;23.65;16.13;;;;;;;16.95;83.86;100855.28;5070838;28;20032;-59
2022/09/13 03:08:55;;;;;;;23.88;16.45;;;;;;;16.97;83.38;100852.13;5070048;28;20025;-60
2022/09/13 03:11:32;;;;;;;21.92;16.35;;;;;;;16.98;83.77;100851.78;5051991;28;20029;-59
2022/09/13 03:14:07;;;;;;;23.60;15.75;;;;;;;17.00;83.77;100851.44;5070360;28;20052;-60
2022/09/13 03:16:43;;;;;;;22.23;16.55;;;;;;;16.90;84.80;100835.94;5070141;28;20052;-60
2022/09/13 03:19:15;;;;;;;22.92;15.85;;;;;;;16.96;85.38;100842.09;5069743;28;20060;-60
2022/09/13 03:21:47;;;;;;;22.85;16.30;;;;;;;16.93;85.80;100840.81;5070093;28;20364;-59
2022/09/13 03:24:46;;;;;;;23.13;16.58;;;;;;;16.90;85.45;100841.50;5070477;28;20021;-60
2022/09/13 03:27:32;;;;;;;22.75;16.48;;;;;;;16.80;86.51;100823.22;5070338;28;20345;-60
2022/09/13 03:30:07;;;;;;;23.52;17.00;;;;;;;16.76;87.37;100825.09;5073048;28;20337;-60
2022/09/13 03:32:33;;;;;;;23.00;16.38;;;;;;;16.84;87.84;100835.34;5074186;28;20093;-60
2022/09/13 03:35:12;;;;;;;23.17;16.45;;;;;;;16.84;87.12;100838.13;5074275;28;20496;-60
2022/09/13 03:37:55;;;;;;;22.45;15.80;;;;;;;16.83;87.28;100839.28;5075205;28;20028;-59
2022/09/13 03:40:43;;;;;;;23.17;15.73;;;;;;;16.78;87.92;100833.94;5074530;28;20028;-59
2022/09/13 03:43:15;;;;;;;22.67;16.83;;;;;;;16.78;87.73;100828.34;5074568;28;20024;-60
2022/09/13 03:45:47;;;;;;;22.90;15.50;;;;;;;16.76;87.55;100827.06;5074319;28;20052;-61
2022/09/13 03:48:13;;;;;;;23.42;16.13;;;;;;;16.80;87.44;100831.59;5074076;28;20352;-59
2022/09/13 03:50:39;;;;;;;22.48;16.05;;;;;;;16.78;87.55;100825.53;5073719;28;20055;-59
2022/09/13 03:53:11;;;;;;;21.42;15.70;;;;;;;16.78;87.73;100819.97;5074115;28;20067;-61
2022/09/13 03:55:41;;;;;;;22.55;16.85;;;;;;;16.77;87.79;100823.09;5074606;28;20077;-59
2022/09/13 03:58:17;;;;;;;21.98;16.02;;;;;;;16.73;88.31;100820.19;5074371;28;20040;-59
2022/09/13 04:00:44;;;;;;;22.17;16.40;;;;;;;16.69;87.98;100822.88;5073669;28;20127;-61
2022/09/13 04:03:11;;;;;;;21.65;15.55;;;;;;;16.72;87.91;100826.94;5074384;28;20063;-59
2022/09/13 04:05:37;;;;;;;23.20;16.80;;;;;;;16.74;87.98;100830.22;5074120;28;20115;-60
2022/09/13 04:08:04;;;;;;;22.25;16.13;;;;;;;16.72;87.85;100823.34;5073856;28;20533;-60
2022/09/13 04:10:31;;;;;;;23.25;16.08;;;;;;;16.71;87.42;100839.28;5055527;28;20107;-59
2022/09/13 04:12:58;;;;;;;22.88;15.98;;;;;;;16.71;88.11;100844.06;5073172;28;20106;-59
2022/09/13 04:15:23;;;;;;;22.42;15.73;;;;;;;16.69;88.18;100845.22;5074098;28;20020;-58
2022/09/13 04:17:49;;;;;;;23.00;16.70;;;;;;;16.64;88.18;100844.63;5072644;28;20352;-59
2022/09/13 04:20:14;;;;;;;22.48;15.70;;;;;;;16.68;88.55;100851.97;5073433;28;20067;-59
2022/09/13 04:22:41;;;;;;;22.25;16.10;;;;;;;16.69;87.97;100863.94;5073042;28;20029;-58
2022/09/13 04:25:07;;;;;;;22.10;15.70;;;;;;;16.69;87.54;100864.78;5073705;28;20442;-59
2022/09/13 04:27:34;;;;;;;23.08;16.90;;;;;;;16.69;86.95;100867.56;5073471;28;20506;-58
2022/09/13 04:30:00;;;;;;;22.95;16.23;;;;;;;16.68;87.29;100865.09;5073407;28;20032;-61
2022/09/13 04:32:25;;;;;;;23.92;15.90;;;;;;;16.69;87.04;100859.19;5073162;28;20028;-60
2022/09/13 04:34:50;;;;;;;23.23;16.23;;;;;;;16.69;87.45;100858.38;5073074;28;20054;-58
2022/09/13 04:37:16;;;;;;;22.83;16.70;;;;;;;16.69;86.66;100855.56;5073341;28;20060;-62
2022/09/13 04:39:41;;;;;;;24.13;16.88;;;;;;;16.69;86.70;100859.19;5073042;28;20380;-60
2022/09/13 04:42:07;;;;;;;23.38;16.52;;;;;;;16.68;87.05;100863.16;5071920;28;20040;-62
2022/09/13 04:44:32;;;;;;;24.55;16.77;;;;;;;16.69;86.84;100862.00;5072930;28;20506;-62
2022/09/13 04:46:58;;;;;;;22.30;16.17;;;;;;;16.71;86.54;100866.41;5072926;28;20067;-61
2022/09/13 04:49:23;;;;;;;23.75;16.73;;;;;;;16.72;86.94;100870.84;5073113;28;20422;-61
2022/09/13 04:51:48;;;;;;;25.10;17.20;;;;;;;16.71;86.90;100870.00;5072819;28;20498;-60
2022/09/13 04:54:14;;;;;;;23.38;17.08;;;;;;;16.71;86.64;100867.22;5072258;28;20471;-59
2022/09/13 04:56:39;;;;;;;22.30;16.33;;;;;;;16.71;86.65;100870.00;5073224;28;20029;-61
2022/09/13 04:59:05;;;;;;;23.10;16.60;;;;;;;16.72;86.70;100877.22;5072928;28;20042;-61
2022/09/13 05:01:31;;;;;;;23.42;16.50;;;;;;;16.72;86.72;100873.63;5072214;28;20056;-61
2022/09/13 05:03:57;;;;;;;23.45;17.02;;;;;;;16.71;86.75;100875.59;5072682;28;20056;-60
2022/09/13 05:06:22;;;;;;;24.77;17.75;;;;;;;16.71;86.66;100874.78;5072799;28;20384;-60
2022/09/13 05:08:54;;;;;;;23.63;17.13;;;;;;;16.71;86.98;100872.00;5073114;28;20059;-62
2022/09/13 05:11:21;;;;;;;23.98;16.80;;;;;;;16.72;87.40;100876.44;5072316;28;20020;-60
2022/09/13 05:13:53;;;;;;;24.88;17.40;;;;;;;16.71;87.29;100877.59;5072242;28;20047;-60
2022/09/13 05:16:18;;;;;;;24.20;17.17;;;;;;;16.69;87.04;100872.31;5071494;28;20095;-58
2022/09/13 05:18:44;;;;;;;23.85;18.00;;;;;;;16.71;87.05;100883.19;5037236;28;20442;-59
2022/09/13 05:21:09;;;;;;;24.55;17.98;;;;;;;16.72;87.22;100873.63;5054025;28;20083;-59
2022/09/13 05:23:34;;;;;;;25.13;17.90;;;;;;;16.70;87.37;100882.34;5054546;28;20028;-60
2022/09/13 05:26:05;;;;;;;25.10;17.73;;;;;;;16.68;87.68;100876.28;5054806;28;20028;-60
2022/09/13 05:28:32;;;;;;;25.80;17.45;;;;;;;16.72;87.42;100879.22;5073513;28;20067;-61
2022/09/13 05:31:00;;;;;;;25.23;17.65;;;;;;;16.68;87.07;100874.31;5073458;28;20037;-61
2022/09/13 05:33:27;;;;;;;24.08;18.25;;;;;;;16.72;87.14;100876.44;5073474;28;20032;-60
2022/09/13 05:35:53;;;;;;;23.90;17.00;;;;;;;16.73;87.54;100872.44;5073155;28;20111;-61
2022/09/13 05:38:18;;;;;;;23.88;17.33;;;;;;;16.75;86.84;100878.50;5072668;28;20333;-61
2022/09/13 05:40:44;;;;;;;24.90;18.17;;;;;;;16.77;87.33;100887.38;5072432;28;20448;-61
2022/09/13 05:43:10;;;;;;;23.92;17.30;;;;;;;16.78;87.20;100880.63;5072220;28;20107;-61
2022/09/13 05:45:35;;;;;;;24.75;17.52;;;;;;;16.75;87.39;100876.53;5072647;28;20052;-60
2022/09/13 05:48:01;;;;;;;26.35;17.95;;;;;;;16.80;87.51;100892.25;5072644;28;20025;-61
2022/09/13 05:50:26;;;;;;;24.73;16.80;;;;;;;16.81;87.30;100886.31;5072401;28;20336;-60
2022/09/13 05:52:52;;;;;;;25.73;17.42;;;;;;;16.82;87.33;100882.38;5070752;28;20028;-60
2022/09/13 05:55:18;;;;;;;25.33;17.92;;;;;;;16.86;87.37;100881.69;5070717;28;20071;-60
2022/09/13 05:57:43;;;;;;;25.20;18.25;;;;;;;16.87;87.33;100875.72;5071560;28;20071;-60
2022/09/13 06:00:09;;;;;;;26.65;18.58;;;;;;;16.89;87.36;100881.78;5071660;28;20052;-59
2022/09/13 06:02:35;;;;;;;25.52;18.15;;;;;;;16.91;87.42;100882.25;5053764;28;20364;-60
2022/09/13 06:05:00;;;;;;;24.20;17.60;;;;;;;16.96;87.30;100881.22;5072452;28;20095;-60
2022/09/13 06:07:26;;;;;;;24.70;17.23;;;;;;;16.99;87.61;100872.97;5072121;28;20020;-60
2022/09/13 06:09:52;;;;;;;25.05;17.58;;;;;;;17.03;87.61;100884.28;5071666;28;20023;-60
2022/09/13 06:12:17;;;;;;;26.58;18.80;;;;;;;17.07;87.18;100881.59;5071971;28;20032;-61
2022/09/13 06:14:42;;;;;;;26.58;17.55;;;;;;;17.09;87.12;100879.25;5072413;28;20017;-60
2022/09/13 06:17:08;;;;;;;25.63;18.00;;;;;;;17.14;86.51;100879.00;5070630;28;20029;-60
2022/09/13 06:19:34;;;;;;;25.77;18.63;;;;;;;17.18;86.45;100876.34;5071064;28;20051;-61
2022/09/13 06:21:59;;;;;;;26.40;18.45;;;;;;;17.23;86.29;100874.13;5071535;28;20090;-60
2022/09/13 06:24:24;;;;;;;25.65;19.05;;;;;;;17.30;85.64;100890.31;5053845;28;20441;-60
2022/09/13 06:26:49;;;;;;;25.35;18.33;;;;;;;17.36;86.01;100888.09;5071913;28;20052;-60
2022/09/13 06:29:15;;;;;;;25.67;17.83;;;;;;;17.40;85.75;100887.03;5070116;28;20533;-60
2022/09/13 06:31:43;;;;;;;28.25;17.30;;;;;;;17.46;85.60;100885.63;5071607;28;20487;-61
2022/09/13 06:34:11;;;;;;;27.67;18.08;;;;;;;17.51;85.66;100883.75;5071899;28;20027;-60
2022/09/13 06:36:37;;;;;;;30.48;18.90;;;;;;;17.56;85.29;100875.94;5054340;28;20050;-60
2022/09/13 06:39:04;;;;;;;26.55;19.33;;;;;;;17.65;84.50;100872.19;5072180;28;20103;-60
2022/09/13 06:41:30;;;;;;;29.55;19.58;;;;;;;17.72;85.07;100877.97;5072161;28;20029;-60
2022/09/13 06:43:58;;;;;;;30.77;20.08;;;;;;;17.76;85.89;100876.09;5071835;28;20031;-60
2022/09/13 06:46:24;;;;;;;26.75;18.65;;;;;;;17.81;84.63;100875.84;5071944;28;20040;-61
2022/09/13 06:48:49;;;;;;;28.83;19.08;;;;;;;17.85;83.99;100873.16;5071954;28;20021;-61
2022/09/13 06:51:17;;;;;;;29.83;20.00;;;;;;;17.81;83.88;100861.03;5071517;28;20496;-61
2022/09/13 06:53:44;;;;;;;29.90;20.60;;;;;;;17.88;83.82;100867.66;5072144;28;20455;-60
2022/09/13 06:56:12;;;;;;;29.65;19.33;;;;;;;17.90;84.27;100875.72;5071799;28;20491;-61
2022/09/13 06:58:40;;;;;;;27.90;18.70;;;;;;;17.87;84.53;100859.63;5071865;28;20028;-60
2022/09/13 07:01:13;;;;;;;28.70;19.83;;;;;;;17.97;84.29;100877.91;5071885;28;20060;-60
2022/09/13 07:03:40;;;;;;;27.02;19.73;;;;;;;17.98;84.46;100868.34;5072607;28;20036;-62
2022/09/13 07:06:08;;;;;;;28.90;20.67;;;;;;;18.06;84.42;100870.19;5076212;28;20051;-61
2022/09/13 07:08:33;;;;;;;29.75;20.58;;;;;;;18.14;84.03;100871.19;5075907;28;20024;-61
2022/09/13 07:10:58;;;;;;;29.95;20.50;;;;;;;18.23;83.63;100869.06;5075903;28;20028;-61
2022/09/13 07:13:24;;;;;;;30.95;20.80;;;;;;;18.34;83.77;100872.97;5075719;28;20040;-54
2022/09/13 07:15:49;;;;;;;31.85;21.08;;;;;;;18.41;82.87;100877.94;5075963;28;20023;-63
2022/09/13 07:18:14;;;;;;;29.45;21.02;;;;;;;18.48;82.45;100880.09;5075550;28;20037;-62
2022/09/13 07:20:39;;;;;;;28.50;20.80;;;;;;;18.50;82.45;100878.59;5067206;28;20036;-60
2022/09/13 07:23:05;;;;;;;28.48;21.73;;;;;;;18.55;82.41;100883.91;5073684;28;20040;-60
2022/09/13 07:25:30;;;;;;;32.55;23.23;;;;;;;18.61;82.24;100884.47;5055695;28;20438;-61
2022/09/13 07:27:55;;;;;;;32.28;23.23;;;;;;;18.66;81.69;100883.38;5073637;28;20051;-61
2022/09/13 07:30:20;;;;;;;34.33;22.27;;;;;;;18.74;81.87;100881.59;5073965;28;20059;-61
2022/09/13 07:32:46;;;;;;;30.38;22.27;;;;;;;18.80;81.62;100883.72;5073662;28;20024;-61
2022/09/13 07:35:11;;;;;;;29.02;21.88;;;;;;;18.88;81.37;100886.75;5073446;28;20463;-61
2022/09/13 07:37:36;;;;;;;33.38;23.35;;;;;;;18.95;81.65;100882.13;5073828;28;20029;-61
2022/09/13 07:40:02;;;;;;;33.15;24.88;;;;;;;19.05;81.15;100891.16;5073392;28;20389;-61
2022/09/13 07:42:27;;;;;;;32.00;24.42;;;;;;;19.10;81.09;100888.91;5073245;28;20032;-61
2022/09/13 07:44:52;;;;;;;34.85;24.80;;;;;;;19.18;80.90;100898.31;5073309;28;20039;-61
2022/09/13 07:47:18;;;;;;;34.17;25.92;;;;;;;19.27;81.45;100898.13;5071304;28;20387;-61
2022/09/13 07:49:44;;;;;;;33.67;26.20;;;;;;;19.33;80.11;100908.66;5072686;28;20567;-60
2022/09/13 07:52:09;;;;;;;34.47;26.83;;;;;;;19.39;80.22;100912.00;5072830;28;20123;-61
2022/09/13 07:54:36;;;;;;;33.97;26.77;;;;;;;19.40;80.46;100902.41;5072897;28;20028;-61
2022/09/13 07:57:02;;;;;;;32.25;26.88;;;;;;;19.48;80.26;100907.00;5072971;28;20029;-61
2022/09/13 07:59:28;;;;;;;33.60;26.80;;;;;;;19.55;80.30;100905.56;5072932;28;20032;-61
2022/09/13 08:01:53;;;;;;;34.83;27.55;;;;;;;19.68;80.64;100914.66;5072631;28;20468;-62
2022/09/13 08:04:22;;;;;;;33.53;26.80;;;;;;;19.69;80.04;100905.06;5072786;28;20029;-61
2022/09/13 08:06:48;;;;;;;34.17;27.08;;;;;;;19.83;79.79;100907.38;5073095;28;20043;-61
2022/09/13 08:09:15;;;;;;;34.58;27.98;;;;;;;19.94;80.31;100914.03;5073727;28;20020;-61
2022/09/13 08:11:43;;;;;;;35.22;29.63;;;;;;;19.95;80.22;100912.84;5072969;28;20115;-61
2022/09/13 08:14:12;;;;;;;34.50;29.52;;;;;;;20.03;79.25;100905.41;5080954;28;20020;-61
2022/09/13 08:16:40;;;;;;;37.13;28.80;;;;;;;20.07;79.88;100903.50;5083587;28;20107;-61
2022/09/13 08:19:07;;;;;;;35.88;29.08;;;;;;;20.12;79.45;100916.44;5092985;28;20488;-61
2022/09/13 08:21:36;;;;;;;37.35;30.30;;;;;;;20.06;79.51;100897.06;5093138;28;20043;-61
2022/09/13 08:24:02;;;;;;;36.92;30.52;;;;;;;20.22;80.05;100913.81;5093096;28;20039;-62
2022/09/13 08:26:30;;;;;;;35.70;31.00;;;;;;;20.25;79.53;100917.88;5093055;28;20432;-61
2022/09/13 08:29:01;;;;;;;36.97;31.38;;;;;;;20.30;80.04;100928.81;5092574;28;20031;-61
2022/09/13 08:31:27;;;;;;;37.25;31.90;;;;;;;20.37;79.81;100923.34;5092573;28;20042;-61
2022/09/13 08:33:53;;;;;;;40.25;33.50;;;;;;;20.46;79.31;100911.84;5092408;28;20028;-61
2022/09/13 08:36:19;;;;;;;36.75;31.48;;;;;;;20.52;79.74;100917.97;5092313;28;20085;-64
2022/09/13 08:38:46;;;;;;;36.92;32.72;;;;;;;20.54;79.48;100933.31;5085904;28;20038;-61
2022/09/13 08:41:41;;;;;;;38.80;32.38;;;;;;;20.64;79.62;100925.44;5092412;28;20028;-60
2022/09/13 08:44:25;;;;;;;36.50;30.73;;;;;;;20.73;78.68;100923.19;5092639;28;20036;-61
2022/09/13 08:46:56;;;;;;;35.03;30.35;;;;;;;20.78;78.31;100908.84;5090413;28;20028;-60
2022/09/13 08:49:41;;;;;;;37.15;32.13;;;;;;;20.86;78.59;100918.22;5074016;28;20062;-61
2022/09/13 08:52:18;;;;;;;38.28;32.20;;;;;;;20.93;79.30;100925.94;5092194;28;20092;-60
2022/09/13 08:54:43;;;;;;;35.60;30.92;;;;;;;20.98;78.51;100925.66;5074096;28;20400;-60
2022/09/13 08:57:21;;;;;;;37.17;30.90;;;;;;;21.06;79.03;100929.41;5092000;28;20028;-61
2022/09/13 09:00:04;;;;;;;35.90;29.95;;;;;;;21.12;77.80;100928.69;5092126;28;20451;-62
2022/09/13 09:03:00;;;;;;;35.75;29.88;;;;;;;21.33;77.45;100930.22;5092408;28;20043;-60
2022/09/13 09:05:28;;;;;;;36.15;30.00;;;;;;;21.34;76.49;100917.78;5091902;28;20054;-61
2022/09/13 09:08:08;;;;;;;32.58;27.38;;;;;;;21.41;75.89;100920.69;5091489;28;20027;-61
2022/09/13 09:10:41;;;;;;;34.20;27.88;;;;;;;21.57;75.71;100922.53;5091860;28;20081;-61
2022/09/13 09:13:18;;;;;;;33.05;27.85;;;;;;;21.69;75.15;100918.72;5091996;28;20131;-61
2022/09/13 09:15:47;;;;;;;32.78;28.05;;;;;;;21.74;74.99;100899.47;5091890;28;20119;-61
2022/09/13 09:18:24;;;;;;;34.15;28.52;;;;;;;21.86;74.96;100895.59;5091460;28;20052;-61
2022/09/13 09:20:52;;;;;;;33.85;27.83;;;;;;;22.01;74.48;100901.44;5087276;28;20046;-61
2022/09/13 09:23:22;;;;;;;33.25;26.15;;;;;;;22.02;74.24;100903.03;5081667;28;20052;-61
2022/09/13 09:25:54;;;;;;;29.10;24.27;;;;;;;22.09;73.95;100898.31;5074001;28;20037;-61
2022/09/13 09:28:19;;;;;;;32.03;26.40;;;;;;;22.16;73.96;100893.94;5070961;28;20093;-61
2022/09/13 09:31:03;;;;;;;30.98;24.20;;;;;;;22.23;74.34;100905.31;5071101;28;20456;-61
2022/09/13 09:33:54;;;;;;;;;;;;;;;22.34;74.26;100897.75;5053968;28;20032;-61
2022/09/13 09:36:33;;;;;;;31.42;26.38;;;;;;;22.41;73.32;100899.88;5067992;28;19912;-61
2022/09/13 09:38:59;;;;;;;31.70;26.17;;;;;;;22.55;72.70;100904.84;5070996;28;20036;-62
2022/09/13 09:41:31;;;;;;;27.40;22.30;;;;;;;22.56;72.45;100903.66;5071109;28;20024;-61
2022/09/13 09:44:17;;;;;;;29.27;24.13;;;;;;;22.50;72.40;100905.22;5071394;28;20063;-61
2022/09/13 09:46:50;;;;;;;31.55;25.23;;;;;;;22.35;72.66;100887.31;5073255;28;20035;-62
2022/09/13 09:52:09;;;;;;;29.45;24.05;;;;;;;22.34;72.80;100908.22;5072436;28;20118;-61
2022/09/13 09:54:35;;;;;;;29.48;23.73;;;;;;;22.35;72.73;100913.47;5072623;28;20047;-62
2022/09/13 09:57:00;;;;;;;27.70;22.98;;;;;;;22.35;74.24;100909.84;5072775;28;20471;-62
2022/09/13 09:59:32;;;;;;;29.08;23.10;;;;;;;22.42;73.86;100905.16;5072557;28;20422;-62
2022/09/13 10:02:13;;;;;;;28.30;22.05;;;;;;;22.47;72.85;100914.44;5072701;28;20025;-61
2022/09/13 10:04:39;;;;;;;27.17;21.58;;;;;;;22.70;72.85;100905.81;5072805;28;20472;-62
2022/09/13 10:07:25;;;;;;;24.90;19.58;;;;;;;22.85;72.07;100898.28;5054314;28;20069;-61
2022/09/13 10:09:58;;;;;;;25.73;20.02;;;;;;;22.99;70.92;100894.78;5072695;28;20024;-62
2022/09/13 10:12:30;;;;;;;26.58;20.00;;;;;;;23.21;70.00;100890.13;5072674;28;20108;-62
2022/09/13 10:15:16;;;;;;;25.92;19.88;;;;;;;23.38;69.52;100907.59;5072782;28;20600;-62
2022/09/13 10:17:42;;;;;;;24.08;18.65;;;;;;;23.20;69.15;100900.63;5072779;28;20055;-62
2022/09/13 10:20:13;;;;;;;25.45;17.92;;;;;;;23.19;69.58;100895.38;5072450;28;20393;-62
2022/09/13 10:22:39;;;;;;;24.80;19.13;;;;;;;23.29;69.32;100896.63;5072354;28;20032;-62
2022/09/13 10:25:24;;;;;;;23.02;18.50;;;;;;;23.45;70.03;100899.97;5072484;28;20031;-62
2022/09/13 10:27:54;;;;;;;23.23;16.50;;;;;;;23.31;68.85;100903.50;5072391;28;20033;-62
2022/09/13 10:30:36;;;;;;;23.73;17.13;;;;;;;23.28;69.54;100892.19;5072555;28;20056;-62
2022/09/13 10:33:03;;;;;;;22.63;16.60;;;;;;;23.28;69.76;100895.00;5072604;28;20534;-62
2022/09/13 10:35:29;;;;;;;22.30;16.58;;;;;;;23.20;69.48;100892.16;5072676;28;20090;-62
2022/09/13 10:37:55;;;;;;;22.77;15.60;;;;;;;23.22;69.88;100886.09;5072224;28;20028;-62
2022/09/13 10:40:32;;;;;;;22.85;16.23;;;;;;;23.33;68.86;100889.81;5053034;28;20090;-63
2022/09/13 10:43:03;;;;;;;24.25;16.60;;;;;;;23.37;67.81;100889.81;5072104;28;20032;-62
2022/09/13 10:45:30;;;;;;;23.40;15.73;;;;;;;23.43;67.55;100891.06;5072145;28;20098;-62
2022/09/13 10:48:13;;;;;;;21.58;15.73;;;;;;;23.49;68.51;100883.88;5071985;28;20094;-61
2022/09/13 10:50:38;;;;;;;22.35;16.00;;;;;;;23.53;66.59;100879.03;5072213;28;20032;-61
2022/09/13 10:53:23;;;;;;;22.50;15.93;;;;;;;23.58;66.20;100877.84;5080103;28;20505;-61
2022/09/13 10:55:53;;;;;;;23.30;15.35;;;;;;;23.57;66.44;100887.50;5090276;28;20048;-61
2022/09/13 10:58:19;;;;;;;20.98;14.02;;;;;;;23.64;65.42;100884.75;5090531;28;20028;-61
2022/09/13 11:00:52;;;;;;;21.13;13.90;;;;;;;23.74;65.41;100886.00;5090699;28;20165;-61
2022/09/13 11:03:38;;;;;;;23.30;16.83;;;;;;;23.88;66.06;100888.06;5090840;28;20032;-61
2022/09/13 11:06:23;;;;;;;25.27;15.50;;;;;;;24.10;66.80;100874.06;5090422;28;20032;-62
2022/09/13 11:09:29;;;;;;;20.80;15.05;;;;;;;24.19;65.55;100884.97;5090217;28;20784;-62
2022/09/13 11:12:14;;;;;;;23.83;17.08;;;;;;;24.05;65.29;100880.09;5090432;28;20032;-62
2022/09/13 11:14:54;;;;;;;22.23;15.70;;;;;;;23.99;65.73;100872.00;5058409;28;20124;-61
2022/09/13 11:17:37;;;;;;;22.65;15.70;;;;;;;24.01;65.44;100865.94;5069940;28;20028;-61
2022/09/13 11:20:12;;;;;;;21.40;16.45;;;;;;;24.01;64.88;100870.81;5069995;28;20507;-61
2022/09/13 11:23:07;;;;;;;21.75;15.80;;;;;;;23.93;65.82;100864.28;5070020;28;20103;-62
2022/09/13 11:25:50;;;;;;;21.88;15.05;;;;;;;23.67;66.16;100849.25;5069798;28;20024;-62
2022/09/13 11:28:29;;;;;;;21.30;14.73;;;;;;;23.70;66.91;100859.75;5069755;28;20064;-61
2022/09/13 11:31:12;;;;;;;20.90;14.90;;;;;;;23.61;66.04;100857.28;5077114;28;20041;-61